createdAt,value
2022-12-25T00:00:32.766Z,-0.99
2022-12-25T00:02:59.977Z,-0.89
2022-12-25T00:05:26.719Z,-0.88
2022-12-25T00:07:53.275Z,-0.86
2022-12-25T00:10:20.136Z,-0.80
2022-12-25T00:12:46.669Z,-0.75
2022-12-25T00:15:13.192Z,-0.69
2022-12-25T00:17:39.794Z,-0.69
2022-12-25T00:20:07.170Z,-0.65
2022-12-25T00:22:33.763Z,-0.61
2022-12-25T00:25:00.564Z,-0.63
2022-12-25T00:27:27.310Z,-0.71
2022-12-25T00:29:53.853Z,-0.73
2022-12-25T00:32:23.022Z,-0.76
2022-12-25T00:34:49.561Z,-0.70
2022-12-25T00:37:18.542Z,-0.67
2022-12-25T00:39:45.131Z,-0.65
2022-12-25T00:42:20.431Z,-0.70
2022-12-25T00:44:49.210Z,-0.61
2022-12-25T00:47:16.608Z,-0.52
2022-12-25T00:49:43.463Z,-0.53
2022-12-25T00:52:10.549Z,-0.51
2022-12-25T00:54:37.740Z,-0.43
2022-12-25T00:57:04.509Z,-0.42
2022-12-25T00:59:32.701Z,-0.48
2022-12-25T01:02:23.089Z,-0.52
2022-12-25T01:04:54.612Z,-0.45
2022-12-25T01:07:22.930Z,-0.38
2022-12-25T01:10:08.091Z,-0.31
2022-12-25T01:12:37.310Z,-0.35
2022-12-25T01:15:10.398Z,-0.25
2022-12-25T01:17:37.017Z,-0.28
2022-12-25T01:20:04.317Z,-0.28
2022-12-25T01:22:33.392Z,-0.40
2022-12-25T01:24:59.931Z,-0.39
2022-12-25T01:27:26.459Z,-0.40
2022-12-25T01:29:52.998Z,-0.33
2022-12-25T01:32:19.583Z,-0.47
2022-12-25T01:34:53.769Z,-0.32
2022-12-25T01:37:22.441Z,-0.25
2022-12-25T01:39:52.368Z,-0.15
2022-12-25T01:42:21.530Z,-0.20
2022-12-25T01:44:48.564Z,-0.32
2022-12-25T01:47:16.941Z,-0.33
2022-12-25T01:49:46.770Z,-0.24
2022-12-25T01:52:23.888Z,-0.19
2022-12-25T01:54:57.969Z,-0.34
2022-12-25T01:57:36.729Z,-0.28
2022-12-25T02:00:04.479Z,-0.13
2022-12-25T02:02:31.388Z,-0.08
2022-12-25T02:05:01.668Z,-0.17
2022-12-25T02:07:29.007Z,-0.23
2022-12-25T02:09:55.606Z,-0.23
2022-12-25T02:12:33.352Z,-0.31
2022-12-25T02:15:07.417Z,-0.24
2022-12-25T02:18:00.477Z,-0.13
2022-12-25T02:20:39.250Z,-0.19
2022-12-25T02:23:55.718Z,-0.22
2022-12-25T02:26:49.580Z,-0.32
2022-12-25T02:29:23.638Z,-0.37
2022-12-25T02:32:13.014Z,-0.38
2022-12-25T02:35:02.570Z,-0.42
2022-12-25T02:37:52.775Z,-0.47
2022-12-25T02:40:25.841Z,-0.32
2022-12-25T02:43:25.017Z,-0.29
2022-12-25T02:46:31.708Z,-0.29
2022-12-25T02:49:21.366Z,-0.31
2022-12-25T02:52:53.024Z,-0.38
2022-12-25T02:55:43.057Z,-0.37
2022-12-25T02:58:32.839Z,-0.34
2022-12-25T03:01:24.912Z,-0.43
2022-12-25T03:04:15.925Z,-0.48
2022-12-25T03:07:11.382Z,-0.50
2022-12-25T03:10:20.480Z,-0.51
2022-12-25T03:12:54.192Z,-0.46
2022-12-25T03:15:39.876Z,-0.44
2022-12-25T03:18:12.934Z,-0.42
2022-12-25T03:20:58.023Z,-0.44
2022-12-25T03:23:48.653Z,-0.41
2022-12-25T03:26:34.256Z,-0.53
2022-12-25T03:29:00.957Z,-0.56
2022-12-25T03:31:48.215Z,-0.52
2022-12-25T03:35:06.529Z,-0.53
2022-12-25T03:38:07.577Z,-0.57
2022-12-25T03:41:10.850Z,-0.55
2022-12-25T03:44:21.435Z,-0.63
2022-12-25T03:47:13.057Z,-0.69
2022-12-25T03:50:05.129Z,-0.75
2022-12-25T03:52:50.720Z,-0.83
2022-12-25T03:55:36.274Z,-0.75
2022-12-25T03:58:21.730Z,-0.63
2022-12-25T04:01:06.588Z,-0.71
2022-12-25T04:03:51.773Z,-0.78
2022-12-25T04:06:38.415Z,-0.83
2022-12-25T04:09:23.587Z,-0.73
2022-12-25T04:12:10.133Z,-0.76
2022-12-25T04:14:55.460Z,-0.52
2022-12-25T04:17:40.340Z,-0.42
2022-12-25T04:20:26.190Z,-0.44
2022-12-25T04:23:11.672Z,-0.51
2022-12-25T04:25:56.565Z,-0.68
2022-12-25T04:28:42.379Z,-0.56
2022-12-25T04:31:27.895Z,-0.77
2022-12-25T04:34:14.458Z,-0.93
2022-12-25T04:36:41.026Z,-0.79
2022-12-25T04:39:11.019Z,-0.75
2022-12-25T04:41:40.458Z,-0.67
2022-12-25T04:44:07.034Z,-0.50
2022-12-25T04:46:33.617Z,-0.44
2022-12-25T04:49:01.275Z,-0.42
2022-12-25T04:51:28.135Z,-0.43
2022-12-25T04:53:54.832Z,-0.38
2022-12-25T04:56:21.941Z,-0.43
2022-12-25T04:58:50.951Z,-0.40
2022-12-25T05:01:19.396Z,-0.41
2022-12-25T05:03:46.089Z,-0.36
2022-12-25T05:06:12.802Z,-0.19
2022-12-25T05:08:39.358Z,-0.18
2022-12-25T05:11:12.677Z,-0.44
2022-12-25T05:13:39.390Z,-0.42
2022-12-25T05:16:08.481Z,-0.28
2022-12-25T05:18:35.476Z,-0.31
2022-12-25T05:21:05.296Z,-0.02
2022-12-25T05:23:33.006Z,-0.13
2022-12-25T05:26:01.847Z,-0.09
2022-12-25T05:28:28.663Z,0.02
2022-12-25T05:31:00.000Z,-0.17
2022-12-25T05:33:26.664Z,-0.18
2022-12-25T05:35:53.260Z,0.01
2022-12-25T05:38:19.807Z,-0.09
2022-12-25T05:40:47.523Z,0.16
2022-12-25T05:43:14.209Z,0.09
2022-12-25T05:45:40.724Z,-0.10
2022-12-25T05:48:07.238Z,-0.02
2022-12-25T05:50:37.637Z,-0.11
2022-12-25T05:53:09.398Z,-0.17
2022-12-25T05:55:40.989Z,-0.17
2022-12-25T05:58:08.351Z,-0.14
2022-12-25T06:00:34.953Z,0.33
2022-12-25T06:03:02.662Z,0.36
2022-12-25T06:05:29.369Z,-0.13
2022-12-25T06:07:56.448Z,-0.23
2022-12-25T06:10:24.312Z,0.06
2022-12-25T06:12:50.827Z,0.01
2022-12-25T06:15:17.429Z,0.09
2022-12-25T06:17:43.991Z,-0.13
2022-12-25T06:20:10.725Z,0.00
2022-12-25T06:22:38.468Z,0.00
2022-12-25T06:25:05.690Z,-0.03
2022-12-25T06:27:32.219Z,-0.16
2022-12-25T06:29:59.991Z,-0.31
2022-12-25T06:32:27.038Z,-0.28
2022-12-25T06:34:53.823Z,-0.26
2022-12-25T06:37:25.507Z,-0.43
2022-12-25T06:39:54.808Z,-0.45
2022-12-25T06:42:21.381Z,-0.35
2022-12-25T06:44:48.226Z,-0.37
2022-12-25T06:47:14.841Z,-0.45
2022-12-25T06:49:42.026Z,-0.48
2022-12-25T06:52:08.838Z,-0.46
2022-12-25T06:54:37.554Z,-0.52
2022-12-25T06:57:05.384Z,-0.55
2022-12-25T06:59:32.253Z,-0.55
2022-12-25T07:01:59.271Z,-0.51
2022-12-25T07:04:37.062Z,-0.63
2022-12-25T07:07:09.051Z,-0.72
2022-12-25T07:09:39.463Z,-0.67
2022-12-25T07:12:06.998Z,-0.66
2022-12-25T07:14:33.527Z,-0.61
2022-12-25T07:17:00.177Z,-0.60
2022-12-25T07:19:27.016Z,-0.58
2022-12-25T07:21:53.533Z,-0.58
2022-12-25T07:24:21.610Z,-0.57
2022-12-25T07:26:50.961Z,-0.66
2022-12-25T07:29:19.543Z,-0.64
2022-12-25T07:31:46.840Z,-0.66
2022-12-25T07:34:13.383Z,-0.75
2022-12-25T07:36:39.906Z,-0.79
2022-12-25T07:39:06.418Z,-0.78
2022-12-25T07:41:33.520Z,-0.76
2022-12-25T07:44:00.099Z,-0.67
2022-12-25T07:46:27.147Z,-0.57
2022-12-25T07:48:55.360Z,-0.44
2022-12-25T07:51:21.953Z,-0.36
2022-12-25T07:53:48.523Z,-0.31
2022-12-25T07:56:17.250Z,-0.25
2022-12-25T07:58:46.302Z,-0.19
2022-12-25T08:01:21.855Z,-0.19
2022-12-25T08:03:54.700Z,-0.18
2022-12-25T08:06:23.266Z,-0.12
2022-12-25T08:08:50.065Z,-0.09
2022-12-25T08:11:16.849Z,-0.03
2022-12-25T08:13:45.967Z,-0.02
2022-12-25T08:16:13.067Z,-0.09
2022-12-25T08:18:40.604Z,-0.01
2022-12-25T08:21:09.930Z,0.02
2022-12-25T08:23:40.595Z,0.05
2022-12-25T08:26:11.032Z,-0.04
2022-12-25T08:28:39.054Z,0.01
2022-12-25T08:31:10.573Z,0.17
2022-12-25T08:33:37.951Z,0.03
2022-12-25T08:36:06.725Z,0.16
2022-12-25T08:38:33.913Z,0.40
2022-12-25T08:41:00.510Z,0.35
2022-12-25T08:43:27.158Z,0.18
2022-12-25T08:45:53.732Z,0.04
2022-12-25T08:48:20.356Z,0.14
2022-12-25T08:50:48.816Z,-0.05
2022-12-25T08:53:15.743Z,0.20
2022-12-25T08:55:42.400Z,0.45
2022-12-25T08:58:09.667Z,0.53
2022-12-25T09:00:36.691Z,0.59
2022-12-25T09:03:06.565Z,0.44
2022-12-25T09:05:37.392Z,0.49
2022-12-25T09:08:04.273Z,0.44
2022-12-25T09:10:31.012Z,0.40
2022-12-25T09:12:57.569Z,0.53
2022-12-25T09:15:25.260Z,0.64
2022-12-25T09:17:52.477Z,0.55
2022-12-25T09:20:21.758Z,0.56
2022-12-25T09:22:49.437Z,0.55
2022-12-25T09:25:16.093Z,0.53
2022-12-25T09:27:43.641Z,0.55
2022-12-25T09:30:10.999Z,0.41
2022-12-25T09:32:41.985Z,0.39
2022-12-25T09:35:09.656Z,0.38
2022-12-25T09:37:41.352Z,0.36
2022-12-25T09:40:08.665Z,0.43
2022-12-25T09:42:35.315Z,0.56
2022-12-25T09:45:07.099Z,0.63
2022-12-25T09:47:36.058Z,0.67
2022-12-25T09:51:04.431Z,0.65
2022-12-25T09:53:40.656Z,0.61
2022-12-25T09:56:11.549Z,0.48
2022-12-25T09:58:40.617Z,0.50
2022-12-25T10:01:39.171Z,0.55
2022-12-25T10:04:27.657Z,0.54
2022-12-25T10:07:06.286Z,0.63
2022-12-25T10:09:45.415Z,0.70
2022-12-25T10:12:50.514Z,0.74
2022-12-25T10:15:30.700Z,0.53
2022-12-25T10:18:25.115Z,0.70
2022-12-25T10:20:53.950Z,0.84
2022-12-25T10:23:32.675Z,0.77
2022-12-25T10:25:59.292Z,0.95
2022-12-25T10:28:34.272Z,0.90
2022-12-25T10:31:21.221Z,0.58
2022-12-25T10:33:49.689Z,0.74
2022-12-25T10:36:19.641Z,0.96
2022-12-25T10:38:47.448Z,1.06
2022-12-25T10:41:27.563Z,1.12
2022-12-25T10:43:56.284Z,1.13
2022-12-25T10:46:26.228Z,1.13
2022-12-25T10:48:58.825Z,0.92
2022-12-25T10:51:34.916Z,1.05
2022-12-25T10:54:26.141Z,1.10
2022-12-25T10:56:57.257Z,1.04
2022-12-25T10:59:25.940Z,1.03
2022-12-25T11:01:55.401Z,0.87
2022-12-25T11:04:28.500Z,0.73
2022-12-25T11:07:18.259Z,0.65
2022-12-25T11:10:05.356Z,0.49
2022-12-25T11:12:43.396Z,0.51
2022-12-25T11:16:04.634Z,0.54
2022-12-25T11:18:50.914Z,0.63
2022-12-25T11:21:31.703Z,0.74
2022-12-25T11:24:01.381Z,0.85
2022-12-25T11:26:29.703Z,0.91
2022-12-25T11:28:56.478Z,0.92
2022-12-25T11:31:30.535Z,0.95
2022-12-25T11:34:05.682Z,0.96
2022-12-25T11:36:49.612Z,1.00
2022-12-25T11:39:30.692Z,1.04
2022-12-25T11:42:03.255Z,1.02
2022-12-25T11:44:45.491Z,1.03
2022-12-25T11:47:35.303Z,1.06
2022-12-25T11:50:31.140Z,1.05
2022-12-25T11:53:02.620Z,1.01
2022-12-25T11:55:41.897Z,0.96
2022-12-25T11:58:39.171Z,0.94
2022-12-25T12:01:15.923Z,0.98
2022-12-25T12:03:43.186Z,0.92
2022-12-25T12:06:28.330Z,0.95
2022-12-25T12:09:05.559Z,0.99
2022-12-25T12:12:17.598Z,0.88
2022-12-25T12:15:49.047Z,0.88
2022-12-25T12:18:15.597Z,0.86
2022-12-25T12:20:42.241Z,0.82
2022-12-25T12:23:14.607Z,0.85
2022-12-25T12:25:44.897Z,0.80
2022-12-25T12:28:22.040Z,0.77
2022-12-25T12:31:00.436Z,0.81
2022-12-25T12:33:31.561Z,0.72
2022-12-25T12:35:58.358Z,0.73
2022-12-25T12:38:25.528Z,0.60
2022-12-25T12:40:54.422Z,0.62
2022-12-25T12:43:38.302Z,0.57
2022-12-25T12:46:49.614Z,0.53
2022-12-25T12:49:26.750Z,0.56
2022-12-25T12:52:08.210Z,0.53
2022-12-25T12:54:51.797Z,0.54
2022-12-25T12:57:27.139Z,0.59
2022-12-25T12:59:54.954Z,0.61
2022-12-25T13:02:44.740Z,0.62
2022-12-25T13:05:14.413Z,0.68
2022-12-25T13:07:50.149Z,0.72
2022-12-25T13:10:29.094Z,0.75
2022-12-25T13:12:59.980Z,0.75
2022-12-25T13:15:29.349Z,0.84
2022-12-25T13:18:02.576Z,0.91
2022-12-25T13:20:41.596Z,0.99
2022-12-25T13:23:16.233Z,0.98
2022-12-25T13:25:45.461Z,0.98
2022-12-25T13:28:14.687Z,1.01
2022-12-25T13:30:41.408Z,0.94
2022-12-25T13:33:14.966Z,0.92
2022-12-25T13:35:44.735Z,0.86
2022-12-25T13:38:20.000Z,0.84
2022-12-25T13:41:15.388Z,0.82
2022-12-25T13:43:43.541Z,0.85
2022-12-25T13:46:14.730Z,0.84
2022-12-25T13:48:42.464Z,0.87
2022-12-25T13:51:14.910Z,0.87
2022-12-25T13:53:41.570Z,0.83
2022-12-25T13:56:13.726Z,0.90
2022-12-25T13:58:40.399Z,0.95
2022-12-25T14:01:11.192Z,0.97
2022-12-25T14:03:42.726Z,1.06
2022-12-25T14:06:20.167Z,1.06
2022-12-25T14:08:47.655Z,0.98
2022-12-25T14:11:20.677Z,0.95
2022-12-25T14:13:49.208Z,0.92
2022-12-25T14:16:17.747Z,0.92
2022-12-25T14:18:58.562Z,0.90
2022-12-25T14:21:32.621Z,0.85
2022-12-25T14:23:59.811Z,0.84
2022-12-25T14:29:40.574Z,0.65
2022-12-25T14:32:08.449Z,0.63
2022-12-25T14:34:35.036Z,0.62
2022-12-25T14:37:03.541Z,0.58
2022-12-25T14:39:35.421Z,0.60
2022-12-25T14:42:20.995Z,0.61
2022-12-25T14:45:26.466Z,0.62
2022-12-25T14:48:03.027Z,0.56
2022-12-25T14:50:40.123Z,0.54
2022-12-25T14:53:24.590Z,0.55
2022-12-25T14:55:56.093Z,0.61
2022-12-25T14:58:26.819Z,0.56
2022-12-25T15:01:05.795Z,0.57
2022-12-25T15:03:37.368Z,0.59
2022-12-25T15:06:06.975Z,0.63
2022-12-25T15:08:38.124Z,0.62
2022-12-25T15:11:10.618Z,0.62
2022-12-25T15:13:41.980Z,0.62
2022-12-25T15:16:25.843Z,0.59
2022-12-25T15:19:03.233Z,0.68
2022-12-25T15:21:34.986Z,0.82
2022-12-25T15:24:08.630Z,0.72
2022-12-25T15:26:37.498Z,0.70
2022-12-25T15:29:12.893Z,0.89
2022-12-25T15:31:49.992Z,0.96
2022-12-25T15:34:48.151Z,1.00
2022-12-25T15:37:26.183Z,1.00
2022-12-25T15:39:53.647Z,1.04
2022-12-25T15:42:25.248Z,1.03
2022-12-25T15:44:59.718Z,1.03
2022-12-25T15:47:26.578Z,0.88
2022-12-25T15:49:53.585Z,0.98
2022-12-25T15:52:21.250Z,1.16
2022-12-25T15:54:51.149Z,1.18
2022-12-25T15:57:22.225Z,1.21
2022-12-25T15:59:49.082Z,1.12
2022-12-25T16:02:18.049Z,1.17
2022-12-25T16:04:45.360Z,1.25
2022-12-25T16:07:17.741Z,1.16
2022-12-25T16:09:49.744Z,1.36
2022-12-25T16:12:19.590Z,1.33
2022-12-25T16:14:48.085Z,1.39
2022-12-25T16:17:16.342Z,1.29
2022-12-25T16:19:44.634Z,1.19
2022-12-25T16:22:21.677Z,1.14
2022-12-25T16:24:51.778Z,0.98
2022-12-25T16:27:21.330Z,0.88
2022-12-25T16:29:48.965Z,0.91
2022-12-25T16:32:32.784Z,0.71
2022-12-25T16:35:00.829Z,0.91
2022-12-25T16:37:27.638Z,1.13
2022-12-25T16:39:54.144Z,1.16
2022-12-25T16:42:20.934Z,1.11
2022-12-25T16:44:47.454Z,1.10
2022-12-25T16:47:14.176Z,1.07
2022-12-25T16:49:40.759Z,1.12
2022-12-25T16:52:07.244Z,1.14
2022-12-25T16:54:33.912Z,1.03
2022-12-25T16:57:01.928Z,1.09
2022-12-25T16:59:29.628Z,1.12
2022-12-25T17:01:56.351Z,1.09
2022-12-25T17:04:22.990Z,1.05
2022-12-25T17:06:49.652Z,1.11
2022-12-25T17:09:16.216Z,1.11
2022-12-25T17:11:42.865Z,1.06
2022-12-25T17:14:14.667Z,1.07
2022-12-25T17:16:42.164Z,1.02
2022-12-25T17:19:18.696Z,1.02
2022-12-25T17:21:47.710Z,0.98
2022-12-25T17:24:15.191Z,1.02
2022-12-25T17:26:47.808Z,1.07
2022-12-25T17:29:21.470Z,1.03
2022-12-25T17:31:48.913Z,1.02
2022-12-25T17:34:15.582Z,0.94
2022-12-25T17:36:42.122Z,0.89
2022-12-25T17:39:10.250Z,0.98
2022-12-25T17:41:37.090Z,0.99
2022-12-25T17:44:05.828Z,0.89
2022-12-25T17:46:38.851Z,1.00
2022-12-25T17:49:05.998Z,1.06
2022-12-25T17:51:32.848Z,0.98
2022-12-25T17:54:05.809Z,0.91
2022-12-25T17:56:33.215Z,0.83
2022-12-25T17:59:03.617Z,0.86
2022-12-25T18:01:30.300Z,0.86
2022-12-25T18:03:59.306Z,0.92
2022-12-25T18:06:27.836Z,0.91
2022-12-25T18:08:57.873Z,0.93
2022-12-25T18:11:29.090Z,0.88
2022-12-25T18:13:57.975Z,0.87
2022-12-25T18:16:26.509Z,0.89
2022-12-25T18:18:53.492Z,0.84
2022-12-25T18:21:21.312Z,0.91
2022-12-25T18:23:48.065Z,0.91
2022-12-25T18:26:16.999Z,0.91
2022-12-25T18:28:43.948Z,0.96
2022-12-25T18:31:13.716Z,0.98
2022-12-25T18:33:40.796Z,1.04
2022-12-25T18:36:10.222Z,1.03
2022-12-25T18:38:39.712Z,1.04
2022-12-25T18:41:07.849Z,1.04
2022-12-25T18:43:52.320Z,1.04
2022-12-25T18:46:22.357Z,1.05
2022-12-25T18:48:49.194Z,1.07
2022-12-25T18:51:15.771Z,1.07
2022-12-25T18:53:43.776Z,1.17
2022-12-25T18:56:15.531Z,1.23
2022-12-25T18:58:42.309Z,1.26
2022-12-25T19:01:19.374Z,1.25
2022-12-25T19:03:48.406Z,1.26
2022-12-25T19:06:28.945Z,1.31
2022-12-25T19:08:57.330Z,1.38
2022-12-25T19:11:23.863Z,1.39
2022-12-25T19:13:50.441Z,1.42
2022-12-25T19:16:17.116Z,1.39
2022-12-25T19:18:45.985Z,1.45
2022-12-25T19:21:12.652Z,1.45
2022-12-25T19:23:40.625Z,1.45
2022-12-25T19:26:08.824Z,1.48
2022-12-25T19:28:36.500Z,1.44
2022-12-25T19:31:04.279Z,1.46
2022-12-25T19:33:31.897Z,1.42
2022-12-25T19:36:05.004Z,1.45
2022-12-25T19:38:31.653Z,1.49
2022-12-25T19:41:01.272Z,1.50
2022-12-25T19:43:34.888Z,1.47
2022-12-25T19:46:02.519Z,1.47
2022-12-25T19:48:30.012Z,1.39
2022-12-25T19:51:31.219Z,1.43
2022-12-25T19:53:57.942Z,1.41
2022-12-25T19:56:26.464Z,1.43
2022-12-25T19:58:54.413Z,1.47
2022-12-25T20:01:23.516Z,1.51
2022-12-25T20:04:18.171Z,1.50
2022-12-25T20:06:44.977Z,1.47
2022-12-25T20:09:14.270Z,1.53
2022-12-25T20:11:50.285Z,1.47
2022-12-25T20:14:21.075Z,1.48
2022-12-25T20:16:47.707Z,1.49
2022-12-25T20:19:14.751Z,1.51
2022-12-25T20:21:42.513Z,1.51
2022-12-25T20:24:11.344Z,1.53
2022-12-25T20:26:40.965Z,1.50
2022-12-25T20:29:07.722Z,1.53
2022-12-25T20:31:35.546Z,1.53
2022-12-25T20:34:09.842Z,1.57
2022-12-25T20:36:40.330Z,1.56
2022-12-25T20:39:09.599Z,1.58
2022-12-25T20:41:37.014Z,1.56
2022-12-25T20:44:04.285Z,1.56
2022-12-25T20:46:32.388Z,1.57
2022-12-25T20:48:58.992Z,1.56
2022-12-25T20:51:27.194Z,1.61
2022-12-25T20:53:54.463Z,1.56
2022-12-25T20:56:24.085Z,1.60
2022-12-25T20:58:58.801Z,1.51
2022-12-25T21:01:25.747Z,1.51
2022-12-25T21:03:53.158Z,1.51
2022-12-25T21:06:20.195Z,1.53
2022-12-25T21:08:46.810Z,1.52
2022-12-25T21:11:15.647Z,1.57
2022-12-25T21:13:43.592Z,1.58
2022-12-25T21:16:13.252Z,1.54
2022-12-25T21:18:39.812Z,1.55
2022-12-25T21:21:07.927Z,1.55
2022-12-25T21:23:35.676Z,1.63
2022-12-25T21:26:24.178Z,1.64
2022-12-25T21:29:54.524Z,1.67
2022-12-25T21:32:42.462Z,1.61
2022-12-25T21:35:10.439Z,1.63
2022-12-25T21:37:36.993Z,1.62
2022-12-25T21:40:04.314Z,1.66
2022-12-25T21:42:30.890Z,1.63
2022-12-25T21:44:57.454Z,1.64
2022-12-25T21:47:24.013Z,1.68
2022-12-25T21:50:11.099Z,1.68
2022-12-25T21:52:37.666Z,1.68
2022-12-25T21:55:04.392Z,1.69
2022-12-25T21:57:33.281Z,1.69
2022-12-25T22:00:00.154Z,1.68
2022-12-25T22:02:27.117Z,1.70
2022-12-25T22:04:53.846Z,1.66
2022-12-25T22:07:22.152Z,1.72
2022-12-25T22:09:52.733Z,1.77
2022-12-25T22:12:38.789Z,1.86
2022-12-25T22:15:10.218Z,1.86
2022-12-25T22:18:01.069Z,1.79
2022-12-25T22:20:34.643Z,1.76
2022-12-25T22:23:03.127Z,1.76
2022-12-25T22:25:29.732Z,1.78
2022-12-25T22:27:56.292Z,1.79
2022-12-25T22:30:34.189Z,1.83
2022-12-25T22:33:05.176Z,1.82
2022-12-25T22:35:33.772Z,1.80
2022-12-25T22:38:01.538Z,1.79
2022-12-25T22:40:28.114Z,1.79
2022-12-25T22:42:56.452Z,1.80
2022-12-25T22:45:23.742Z,1.85
2022-12-25T22:47:52.309Z,1.86
2022-12-25T22:50:18.862Z,1.84
2022-12-25T22:52:51.265Z,1.86
2022-12-25T22:55:20.905Z,1.86
2022-12-25T22:57:48.909Z,1.90
2022-12-25T23:00:15.934Z,1.87
2022-12-25T23:02:42.730Z,1.87
2022-12-25T23:05:10.701Z,1.85
2022-12-25T23:07:41.948Z,1.84
2022-12-25T23:10:11.770Z,1.83
2022-12-25T23:12:56.925Z,1.88
2022-12-25T23:15:24.529Z,1.88
2022-12-25T23:18:10.039Z,1.84
2022-12-25T23:20:55.339Z,1.90
2022-12-25T23:23:40.304Z,1.89
2022-12-25T23:26:09.778Z,1.87
2022-12-25T23:28:56.895Z,1.91
2022-12-25T23:31:27.793Z,1.91
2022-12-25T23:33:54.740Z,1.95
2022-12-25T23:36:23.920Z,1.93
2022-12-25T23:38:52.020Z,1.96
2022-12-25T23:41:19.734Z,1.98
2022-12-25T23:43:46.283Z,1.97
2022-12-25T23:46:12.878Z,1.96
2022-12-25T23:48:39.441Z,1.98
2022-12-25T23:51:07.827Z,1.98
2022-12-25T23:53:35.223Z,2.05
2022-12-25T23:56:02.094Z,2.10
2022-12-25T23:58:29.307Z,2.07
